Time;durP1;ratioP1;P1;durP2;ratioP2;P2;SDS_P1;SDS_P2;PMS_P1;PMS_P2;Temp;Humidity;BMP_temperature;BMP_pressure;BME280_temperature;BME280_humidity;BME280_pressure;Samples;Min_cycle;Max_cycle;Signal;HPM_P1;HPM_P2
2022/07/21 00:00:12;;;;;;;6.80;4.90;;;24.10;8.60;;;;;;5043658;28;20113;-48
2022/07/21 00:02:38;;;;;;;5.50;4.25;;;24.10;8.80;;;;;;5070442;28;20044;-52
2022/07/21 00:05:03;;;;;;;5.15;3.80;;;24.00;8.80;;;;;;5049532;28;20040;-50
2022/07/21 00:07:29;;;;;;;7.70;4.55;;;23.90;9.00;;;;;;5070026;28;20500;-50
2022/07/21 00:09:55;;;;;;;7.50;4.30;;;23.90;8.90;;;;;;5048119;28;20033;-49
2022/07/21 00:12:20;;;;;;;8.98;4.30;;;23.90;9.20;;;;;;5069853;28;20021;-52
2022/07/21 00:14:46;;;;;;;5.95;4.13;;;23.80;9.30;;;;;;5053783;28;20055;-52
2022/07/21 00:17:12;;;;;;;5.45;3.80;;;23.80;9.30;;;;;;5051115;28;20293;-50
2022/07/21 00:19:37;;;;;;;5.25;4.10;;;23.70;9.40;;;;;;5067759;28;20409;-52
2022/07/21 00:22:03;;;;;;;8.45;4.18;;;23.70;9.60;;;;;;5051243;28;20088;-55
2022/07/21 00:24:29;;;;;;;7.00;4.38;;;23.60;9.70;;;;;;5066611;28;20016;-48
2022/07/21 00:26:54;;;;;;;9.38;4.80;;;23.50;9.80;;;;;;5050205;28;20036;-48
2022/07/21 00:29:20;;;;;;;7.00;4.45;;;23.50;10.10;;;;;;5067744;28;20028;-49
2022/07/21 00:31:45;;;;;;;8.98;5.18;;;23.60;10.30;;;;;;5070367;28;20021;-48
2022/07/21 00:34:11;;;;;;;7.90;4.20;;;23.60;10.00;;;;;;5054018;28;20472;-53
2022/07/21 00:36:36;;;;;;;8.93;4.60;;;23.50;10.30;;;;;;5069988;28;20388;-50
2022/07/21 00:39:02;;;;;;;7.38;4.88;;;23.50;10.20;;;;;;5052429;28;20117;-54
2022/07/21 00:41:28;;;;;;;5.65;4.35;;;23.50;10.30;;;;;;5070097;28;20142;-49
2022/07/21 00:43:53;;;;;;;6.95;4.38;;;23.50;10.20;;;;;;5051036;28;20112;-52
2022/07/21 00:46:22;;;;;;;7.55;5.38;;;23.50;10.50;;;;;;5070193;28;20028;-48
2022/07/21 00:48:47;;;;;;;9.20;5.10;;;23.40;10.70;;;;;;5049805;28;20052;-53
2022/07/21 00:51:13;;;;;;;7.25;4.63;;;23.50;10.50;;;;;;5069970;28;20025;-53
2022/07/21 00:53:38;;;;;;;6.65;4.25;;;23.50;10.60;;;;;;5049136;28;20496;-52
2022/07/21 00:56:05;;;;;;;7.13;4.68;;;23.50;10.50;;;;;;5050040;28;20029;-49
2022/07/21 00:58:30;;;;;;;7.00;5.13;;;23.40;10.50;;;;;;5068907;28;20113;-52
2022/07/21 01:00:56;;;;;;;9.13;4.97;;;23.50;10.50;;;;;;5048372;28;20088;-53
2022/07/21 01:03:23;;;;;;;7.95;4.80;;;23.40;10.40;;;;;;5068757;28;20158;-51
2022/07/21 01:05:48;;;;;;;9.70;4.75;;;23.40;10.50;;;;;;5048221;28;20485;-49
2022/07/21 01:08:15;;;;;;;9.20;5.05;;;23.40;10.50;;;;;;5068809;28;20143;-51
2022/07/21 01:10:40;;;;;;;7.85;5.22;;;23.40;10.50;;;;;;5048291;28;20108;-53
2022/07/21 01:13:06;;;;;;;6.78;4.97;;;23.40;10.40;;;;;;5068727;28;20115;-50
2022/07/21 01:15:32;;;;;;;10.77;5.28;;;23.40;10.50;;;;;;5042258;28;20545;-52
2022/07/21 01:17:58;;;;;;;6.85;4.88;;;23.40;10.50;;;;;;5068615;28;20034;-51
2022/07/21 01:20:24;;;;;;;10.82;5.43;;;23.40;10.50;;;;;;5048010;28;20423;-51
2022/07/21 01:22:52;;;;;;;6.43;5.15;;;23.40;10.60;;;;;;5068612;28;20039;-54
2022/07/21 01:25:19;;;;;;;6.88;4.93;;;23.40;10.50;;;;;;5047588;28;20100;-54
2022/07/21 01:27:45;;;;;;;6.50;5.05;;;23.40;10.60;;;;;;5068894;28;20052;-53
2022/07/21 01:30:12;;;;;;;7.05;4.25;;;23.30;10.50;;;;;;5047833;28;20118;-49
2022/07/21 01:32:39;;;;;;;8.20;4.88;;;23.30;10.50;;;;;;5068347;28;20025;-52
2022/07/21 01:35:06;;;;;;;6.72;5.18;;;23.20;10.70;;;;;;5058212;28;20032;-50
2022/07/21 01:37:36;;;;;;;7.57;5.28;;;23.20;11.00;;;;;;5049236;28;20029;-55
2022/07/21 01:42:46;;;;;;;8.45;4.93;;;23.20;10.80;;;;;;5029070;28;20507;-51
2022/07/21 01:45:11;;;;;;;9.68;5.63;;;23.20;11.10;;;;;;5054266;28;20029;-49
2022/07/21 01:47:37;;;;;;;9.43;5.35;;;23.30;10.80;;;;;;5061663;28;20407;-54
2022/07/21 01:50:03;;;;;;;12.35;5.55;;;23.20;11.10;;;;;;5056957;28;20111;-55
2022/07/21 01:52:28;;;;;;;12.55;5.80;;;23.20;10.90;;;;;;5049640;28;20033;-55
2022/07/21 01:54:54;;;;;;;9.18;5.93;;;23.20;11.00;;;;;;5066018;28;20032;-52
2022/07/21 01:57:19;;;;;;;8.65;5.47;;;23.20;11.10;;;;;;5049164;28;20033;-48
2022/07/21 01:59:45;;;;;;;9.05;5.53;;;23.20;11.10;;;;;;5066082;28;20039;-52
2022/07/21 02:02:11;;;;;;;9.43;5.68;;;23.20;11.00;;;;;;5068559;28;20054;-53
2022/07/21 02:04:36;;;;;;;13.48;6.03;;;23.20;11.20;;;;;;5053005;28;20027;-54
2022/07/21 02:07:03;;;;;;;11.90;5.78;;;23.20;11.10;;;;;;5068377;28;20426;-52
2022/07/21 02:09:29;;;;;;;15.93;5.70;;;23.10;11.00;;;;;;5051771;28;20236;-53
2022/07/21 02:11:54;;;;;;;6.50;5.20;;;23.10;11.10;;;;;;5068398;28;20029;-55
2022/07/21 02:14:20;;;;;;;7.75;5.38;;;23.10;11.10;;;;;;5046481;28;20162;-55
2022/07/21 02:16:46;;;;;;;10.85;4.78;;;23.00;11.50;;;;;;5048342;28;20393;-52
2022/07/21 02:19:11;;;;;;;7.88;5.22;;;23.00;11.50;;;;;;5065569;28;20035;-51
2022/07/21 02:21:37;;;;;;;9.57;5.15;;;23.00;11.60;;;;;;5068298;28;20040;-56
2022/07/21 02:24:03;;;;;;;8.02;5.82;;;23.00;11.80;;;;;;5046303;28;20029;-55
2022/07/21 02:26:28;;;;;;;7.45;5.05;;;22.90;11.80;;;;;;5068501;28;20021;-55
2022/07/21 02:28:54;;;;;;;8.38;5.10;;;22.90;11.90;;;;;;5047324;28;20385;-55
2022/07/21 02:31:19;;;;;;;6.88;5.22;;;22.90;11.90;;;;;;5065883;28;20056;-52
2022/07/21 02:33:45;;;;;;;9.95;5.43;;;22.80;12.00;;;;;;5047328;28;20146;-55
2022/07/21 02:36:11;;;;;;;7.63;5.05;;;22.80;12.00;;;;;;5047253;28;20091;-54
2022/07/21 02:38:37;;;;;;;10.60;5.50;;;22.80;12.30;;;;;;5067310;28;20119;-54
2022/07/21 02:41:02;;;;;;;9.43;5.53;;;22.80;12.40;;;;;;5046878;28;20436;-56
2022/07/21 02:43:28;;;;;;;9.90;5.07;;;22.70;13.10;;;;;;5067309;28;20303;-53
2022/07/21 02:45:53;;;;;;;9.20;5.40;;;22.60;12.70;;;;;;5046814;28;20061;-56
2022/07/21 02:48:19;;;;;;;6.75;4.57;;;22.50;12.70;;;;;;5067112;28;20093;-54
2022/07/21 02:50:45;;;;;;;6.25;4.88;;;22.50;12.90;;;;;;5046222;28;20033;-62
2022/07/21 02:53:18;;;;;;;9.02;5.32;;;22.50;13.00;;;;;;5067068;28;20028;-63
2022/07/21 02:55:44;;;;;;;6.15;4.78;;;22.50;13.20;;;;;;5039982;28;20531;-54
2022/07/21 02:58:15;;;;;;;8.80;6.00;;;22.40;13.30;;;;;;5067251;28;20056;-56
2022/07/21 03:00:48;;;;;;;6.85;5.25;;;22.40;13.50;;;;;;5046172;28;20104;-53
2022/07/21 03:03:14;;;;;;;8.70;5.90;;;22.40;13.40;;;;;;5028094;28;20069;-55
2022/07/21 03:05:40;;;;;;;9.07;5.63;;;22.40;13.70;;;;;;5052066;28;20068;-52
2022/07/21 03:08:07;;;;;;;9.10;4.95;;;22.40;14.00;;;;;;5067104;28;20028;-51
2022/07/21 03:10:33;;;;;;;10.80;5.20;;;22.40;13.60;;;;;;5046236;28;20206;-52
2022/07/21 03:12:58;;;;;;;7.95;5.60;;;22.40;13.70;;;;;;5067078;28;20049;-55
2022/07/21 03:15:27;;;;;;;11.07;5.45;;;22.40;13.60;;;;;;5051242;28;20437;-55
2022/07/21 03:17:53;;;;;;;7.50;4.97;;;22.40;13.60;;;;;;5047769;28;20091;-56
2022/07/21 03:20:19;;;;;;;10.88;4.60;;;22.30;13.90;;;;;;5065163;28;20634;-52
2022/07/21 03:22:44;;;;;;;10.68;5.68;;;22.40;14.40;;;;;;5048079;28;20108;-51
2022/07/21 03:25:10;;;;;;;10.70;6.43;;;22.40;14.50;;;;;;5064916;28;20044;-48
2022/07/21 03:27:36;;;;;;;10.32;5.50;;;22.40;14.10;;;;;;5048021;28;20053;-51
2022/07/21 03:30:07;;;;;;;11.15;5.88;;;22.40;14.30;;;;;;5065077;28;20133;-53
2022/07/21 03:32:33;;;;;;;9.48;6.53;;;22.50;14.60;;;;;;5067634;28;20094;-53
2022/07/21 03:34:59;;;;;;;10.85;5.93;;;22.60;14.00;;;;;;5052678;28;20047;-52
2022/07/21 03:37:25;;;;;;;9.80;5.70;;;22.60;14.10;;;;;;5066157;28;20100;-52
2022/07/21 03:39:50;;;;;;;11.73;6.10;;;22.70;14.00;;;;;;5051223;28;20086;-49
2022/07/21 03:42:16;;;;;;;6.90;5.65;;;22.60;13.90;;;;;;5067479;28;20021;-51
2022/07/21 03:44:41;;;;;;;8.45;5.60;;;22.70;14.00;;;;;;5050248;28;20044;-53
2022/07/21 03:47:07;;;;;;;11.30;6.50;;;22.70;14.00;;;;;;5065293;28;20512;-51
2022/07/21 03:49:32;;;;;;;7.10;4.80;;;22.80;13.90;;;;;;5048071;28;20132;-48
2022/07/21 03:51:58;;;;;;;7.70;5.28;;;22.90;13.90;;;;;;5067556;28;20110;-48
2022/07/21 03:54:23;;;;;;;7.72;4.97;;;22.90;13.70;;;;;;5047220;28;20484;-48
2022/07/21 03:56:49;;;;;;;10.90;5.47;;;23.00;13.70;;;;;;5067433;28;20063;-52
2022/07/21 03:59:14;;;;;;;8.18;5.82;;;23.00;13.70;;;;;;5048053;28;20037;-54
2022/07/21 04:01:40;;;;;;;8.27;6.00;;;23.40;13.30;;;;;;5065514;28;20038;-53
2022/07/21 04:04:05;;;;;;;7.80;5.57;;;23.80;12.60;;;;;;5051316;28;20025;-48
2022/07/21 04:06:31;;;;;;;6.63;5.05;;;24.20;12.10;;;;;;5049780;28;20036;-54
2022/07/21 04:08:57;;;;;;;8.27;5.40;;;24.60;11.40;;;;;;5070105;28;20511;-51
2022/07/21 04:11:22;;;;;;;11.75;5.32;;;25.00;10.60;;;;;;5049481;28;20055;-52
2022/07/21 04:13:48;;;;;;;8.20;5.35;;;25.30;10.30;;;;;;5062203;28;20086;-49
2022/07/21 04:16:13;;;;;;;9.60;4.95;;;25.50;10.00;;;;;;5048809;28;20036;-55
2022/07/21 04:18:39;;;;;;;7.40;5.20;;;25.30;10.00;;;;;;5069778;28;20119;-50
2022/07/21 04:21:04;;;;;;;8.95;4.70;;;25.10;10.00;;;;;;5049322;28;20111;-52
2022/07/21 04:23:31;;;;;;;7.43;5.07;;;24.90;10.30;;;;;;5069706;28;20107;-54
2022/07/21 04:25:57;;;;;;;8.27;4.78;;;24.80;10.40;;;;;;5048936;28;20025;-55
2022/07/21 04:28:22;;;;;;;7.60;4.60;;;24.60;10.80;;;;;;5069592;28;20063;-51
2022/07/21 04:30:48;;;;;;;8.38;5.03;;;24.50;11.10;;;;;;5048990;28;20041;-55
2022/07/21 04:33:13;;;;;;;5.35;4.25;;;24.30;11.40;;;;;;5069631;28;20127;-50
2022/07/21 04:35:39;;;;;;;5.45;4.50;;;24.30;11.60;;;;;;5057976;28;20116;-54
2022/07/21 04:38:05;;;;;;;5.32;4.57;;;24.20;11.70;;;;;;5050656;28;20444;-52
2022/07/21 04:40:30;;;;;;;8.52;4.15;;;24.20;11.90;;;;;;5067406;28;20078;-56
2022/07/21 04:42:56;;;;;;;4.80;4.10;;;24.20;12.00;;;;;;5050804;28;20049;-53
2022/07/21 04:45:21;;;;;;;6.50;4.10;;;24.40;12.00;;;;;;5067417;28;20024;-50
2022/07/21 04:47:50;;;;;;;6.85;4.35;;;24.60;11.80;;;;;;5056435;28;20829;-56
2022/07/21 04:50:17;;;;;;;10.10;4.80;;;24.90;11.60;;;;;;5067931;28;20108;-52
2022/07/21 04:52:43;;;;;;;8.05;4.70;;;25.10;11.20;;;;;;5068548;28;20016;-55
2022/07/21 04:55:10;;;;;;;6.18;4.55;;;25.20;11.20;;;;;;5054191;28;20041;-50
2022/07/21 04:57:49;;;;;;;6.57;4.90;;;25.20;11.20;;;;;;5069719;28;20366;-55
2022/07/21 05:00:17;;;;;;;6.40;4.38;;;25.20;11.40;;;;;;5040623;28;20028;-52
2022/07/21 05:02:44;;;;;;;7.72;4.90;;;25.40;11.20;;;;;;5069945;28;20016;-50
2022/07/21 05:05:09;;;;;;;5.93;4.28;;;25.80;10.90;;;;;;5053580;28;20081;-52
2022/07/21 05:07:35;;;;;;;5.88;4.40;;;26.30;10.40;;;;;;5069481;28;20305;-52
2022/07/21 05:10:09;;;;;;;8.35;4.30;;;26.80;9.80;;;;;;5052377;28;20438;-49
2022/07/21 05:12:35;;;;;;;10.88;4.90;;;27.20;9.20;;;;;;5069191;28;20017;-49
2022/07/21 05:15:02;;;;;;;8.15;4.30;;;27.60;8.40;;;;;;5049177;28;20035;-54
2022/07/21 05:17:27;;;;;;;12.13;4.88;;;28.10;7.20;;;;;;5069516;28;20176;-51
2022/07/21 05:19:53;;;;;;;6.40;4.28;;;28.50;7.40;;;;;;5050952;28;20047;-52
2022/07/21 05:22:19;;;;;;;7.57;4.63;;;28.90;6.60;;;;;;5069340;28;20514;-50
2022/07/21 05:24:45;;;;;;;6.32;4.13;;;29.70;5.60;;;;;;5049409;28;20028;-53
2022/07/21 05:27:11;;;;;;;10.15;5.03;;;30.60;4.00;;;;;;5069286;28;20021;-55
2022/07/21 05:29:36;;;;;;;4.65;3.83;;;31.30;2.70;;;;;;5048052;28;20043;-48
2022/07/21 05:32:02;;;;;;;5.45;4.80;;;31.80;3.10;;;;;;5069391;28;20032;-53
2022/07/21 05:34:28;;;;;;;10.02;4.75;;;32.30;2.20;;;;;;5049495;28;20033;-48
2022/07/21 05:36:54;;;;;;;10.13;4.97;;;33.10;1.40;;;;;;5047388;28;20040;-51
2022/07/21 05:39:20;;;;;;;7.45;5.40;;;33.70;1.00;;;;;;5068074;28;20029;-54
2022/07/21 05:41:46;;;;;;;8.65;4.65;;;34.20;1.00;;;;;;5046349;28;20528;-49
2022/07/21 05:44:11;;;;;;;5.15;4.65;;;34.60;1.00;;;;;;5068398;28;20029;-55
2022/07/21 05:46:37;;;;;;;6.43;4.82;;;35.00;1.00;;;;;;5047842;28;20029;-51
2022/07/21 05:49:03;;;;;;;7.47;5.28;;;35.50;1.00;;;;;;5067709;28;20404;-51
2022/07/21 05:51:28;;;;;;;5.35;4.85;;;35.50;1.00;;;;;;5047551;28;20029;-50
2022/07/21 05:53:53;;;;;;;10.20;5.10;;;35.90;1.00;;;;;;5068002;28;20127;-53
2022/07/21 05:56:19;;;;;;;5.35;4.85;;;36.50;1.00;;;;;;5047435;28;20491;-50
2022/07/21 05:58:45;;;;;;;8.88;5.78;;;36.90;1.00;;;;;;5067788;28;20033;-51
2022/07/21 06:01:13;;;;;;;7.20;5.13;;;37.20;1.00;;;;;;5047358;28;20040;-55
2022/07/21 06:03:45;;;;;;;8.43;6.55;;;37.60;1.00;;;;;;5068060;28;20029;-48
2022/07/21 06:06:13;;;;;;;8.10;6.47;;;37.80;1.00;;;;;;5039170;28;20072;-55
2022/07/21 06:08:40;;;;;;;9.45;6.28;;;38.10;1.00;;;;;;5067945;28;20358;-51
2022/07/21 06:11:10;;;;;;;6.68;5.95;;;38.30;1.00;;;;;;5047097;28;20029;-49
2022/07/21 06:13:36;;;;;;;9.60;6.78;;;38.40;1.00;;;;;;5056274;28;20041;-52
2022/07/21 06:16:02;;;;;;;9.32;7.30;;;38.40;1.00;;;;;;5057359;28;20084;-52
2022/07/21 06:18:27;;;;;;;8.20;7.40;;;38.40;1.00;;;;;;5048729;28;20025;-54
2022/07/21 06:20:53;;;;;;;9.05;7.40;;;38.50;1.00;;;;;;5065587;28;20076;-53
2022/07/21 06:23:18;;;;;;;8.82;7.93;;;38.90;1.00;;;;;;5048736;28;20033;-50
2022/07/21 06:25:44;;;;;;;8.35;7.50;;;38.80;1.00;;;;;;5063647;28;20070;-53
2022/07/21 06:28:10;;;;;;;8.55;7.40;;;39.40;1.00;;;;;;5048913;28;20567;-54
2022/07/21 06:30:35;;;;;;;7.70;6.90;;;39.90;1.00;;;;;;5065507;28;20072;-55
2022/07/21 06:33:01;;;;;;;8.23;7.43;;;40.30;1.00;;;;;;5068254;28;20070;-53
2022/07/21 06:35:27;;;;;;;15.75;8.73;;;40.70;1.00;;;;;;5052199;28;20484;-53
2022/07/21 06:37:53;;;;;;;11.35;8.35;;;40.70;1.00;;;;;;5068050;28;20040;-48
2022/07/21 06:40:18;;;;;;;9.63;8.40;;;41.10;1.00;;;;;;5050956;28;20032;-48
2022/07/21 06:42:44;;;;;;;8.60;7.53;;;41.30;1.00;;;;;;5068168;28;20016;-51
2022/07/21 06:45:09;;;;;;;8.38;7.55;;;41.60;1.00;;;;;;5049745;28;20239;-52
2022/07/21 06:47:35;;;;;;;8.60;7.72;;;42.00;1.00;;;;;;5064116;28;20049;-55
2022/07/21 06:50:02;;;;;;;9.35;7.50;;;42.40;1.00;;;;;;5047562;28;20017;-52
2022/07/21 06:52:33;;;;;;;11.07;7.60;;;42.60;1.00;;;;;;5068039;28;20501;-50
2022/07/21 06:54:59;;;;;;;10.32;9.15;;;42.90;1.00;;;;;;5047345;28;20033;-55
2022/07/21 06:57:24;;;;;;;10.40;8.60;;;42.90;1.00;;;;;;5067710;28;20620;-53
2022/07/21 06:59:50;;;;;;;8.93;8.02;;;43.10;1.00;;;;;;5048253;28;20549;-52
2022/07/21 07:02:16;;;;;;;9.18;8.27;;;43.40;1.00;;;;;;5065883;28;20093;-55
2022/07/21 07:04:43;;;;;;;10.02;8.70;;;43.70;1.00;;;;;;5048110;28;20048;-51
2022/07/21 07:07:09;;;;;;;9.90;8.70;;;43.80;1.00;;;;;;5046853;28;20032;-54
2022/07/21 07:09:34;;;;;;;10.00;8.63;;;43.90;1.00;;;;;;5067085;28;20032;-56
2022/07/21 07:12:03;;;;;;;9.75;8.75;;;44.20;1.00;;;;;;5046529;28;20052;-55
2022/07/21 07:14:33;;;;;;;12.18;8.88;;;44.20;1.00;;;;;;5062014;28;20020;-55
2022/07/21 07:17:00;;;;;;;15.45;9.35;;;44.20;1.00;;;;;;5046265;28;20405;-55
2022/07/21 07:19:26;;;;;;;10.15;9.13;;;44.20;1.00;;;;;;5067294;28;20035;-54
2022/07/21 07:21:51;;;;;;;9.48;8.60;;;44.40;1.00;;;;;;5046368;28;20037;-55
2022/07/21 07:24:17;;;;;;;12.85;9.85;;;44.00;1.00;;;;;;5066966;28;20033;-55
2022/07/21 07:26:42;;;;;;;9.80;8.80;;;43.90;1.00;;;;;;5046416;28;20107;-53
2022/07/21 07:29:08;;;;;;;9.63;8.32;;;44.10;1.00;;;;;;5066836;28;20059;-56
2022/07/21 07:31:34;;;;;;;9.35;8.32;;;44.40;1.00;;;;;;5046157;28;20036;-54
2022/07/21 07:33:59;;;;;;;11.63;9.30;;;44.70;1.00;;;;;;5066991;28;20035;-54
2022/07/21 07:36:26;;;;;;;10.25;9.07;;;44.60;1.00;;;;;;5047634;28;20037;-53
2022/07/21 07:38:53;;;;;;;10.02;9.07;;;44.20;1.00;;;;;;5070716;28;20032;-55
2022/07/21 07:41:19;;;;;;;9.95;8.95;;;44.30;1.00;;;;;;5060366;28;20109;-54
2022/07/21 07:43:45;;;;;;;12.00;9.80;;;44.50;1.00;;;;;;5051811;28;20029;-54
2022/07/21 07:46:12;;;;;;;9.35;8.48;;;44.60;1.00;;;;;;5068628;28;20032;-55
2022/07/21 07:48:40;;;;;;;11.25;8.63;;;44.50;1.00;;;;;;5051090;28;20067;-53
2022/07/21 07:51:06;;;;;;;11.35;9.02;;;44.80;1.00;;;;;;5068771;28;20075;-56
2022/07/21 07:53:31;;;;;;;10.70;9.60;;;44.60;1.00;;;;;;5051429;28;20072;-52
2022/07/21 07:55:57;;;;;;;11.20;9.48;;;44.20;1.00;;;;;;5068600;28;20067;-53
2022/07/21 07:58:22;;;;;;;11.18;9.10;;;44.10;1.00;;;;;;5071070;28;20115;-52
2022/07/21 08:00:49;;;;;;;10.38;8.90;;;44.30;1.00;;;;;;5055647;28;20021;-49
2022/07/21 08:03:14;;;;;;;10.75;8.43;;;44.50;1.00;;;;;;5070733;28;20396;-54
2022/07/21 08:05:40;;;;;;;12.30;8.43;;;44.60;1.00;;;;;;5053922;28;20028;-51
2022/07/21 08:08:05;;;;;;;12.32;9.52;;;44.70;1.00;;;;;;5070754;28;20020;-53
2022/07/21 08:10:31;;;;;;;12.52;8.85;;;44.60;1.00;;;;;;5052606;28;20238;-49
2022/07/21 08:12:57;;;;;;;10.00;8.80;;;43.80;1.00;;;;;;5069180;28;20069;-53
2022/07/21 08:15:22;;;;;;;16.15;9.25;;;43.60;1.00;;;;;;5048058;28;20094;-52
2022/07/21 08:17:48;;;;;;;10.63;8.80;;;43.30;1.00;;;;;;5070493;28;20389;-48
2022/07/21 08:20:13;;;;;;;9.10;8.05;;;43.40;1.00;;;;;;5049845;28;20061;-52
2022/07/21 08:22:39;;;;;;;8.45;7.70;;;43.30;1.00;;;;;;5070453;28;20393;-53
2022/07/21 08:25:05;;;;;;;12.05;8.32;;;43.10;1.00;;;;;;5050952;28;20059;-51
2022/07/21 08:27:30;;;;;;;8.55;7.72;;;42.80;1.00;;;;;;5067927;28;20029;-53
2022/07/21 08:29:56;;;;;;;9.63;7.68;;;42.60;1.00;;;;;;5050766;28;20166;-53
2022/07/21 08:32:21;;;;;;;9.32;8.20;;;42.50;1.00;;;;;;5049655;28;20032;-55
2022/07/21 08:34:47;;;;;;;11.90;7.93;;;42.20;1.00;;;;;;5069342;28;20058;-54
2022/07/21 08:37:13;;;;;;;8.35;7.55;;;41.70;1.00;;;;;;5048964;28;20425;-50
2022/07/21 08:39:38;;;;;;;8.85;8.05;;;41.20;1.00;;;;;;5069240;28;20028;-51
2022/07/21 08:42:07;;;;;;;10.77;8.25;;;40.30;1.00;;;;;;5048953;28;20033;-52
2022/07/21 08:44:33;;;;;;;9.10;8.00;;;39.40;1.00;;;;;;5069854;28;20044;-52
2022/07/21 08:46:59;;;;;;;8.10;7.30;;;39.00;1.00;;;;;;5048656;28;20025;-52
2022/07/21 08:49:25;;;;;;;10.10;8.73;;;38.70;1.00;;;;;;5068423;28;20049;-54
2022/07/21 08:51:51;;;;;;;7.97;7.20;;;38.40;1.00;;;;;;5048627;28;20082;-52
2022/07/21 08:57:39;;;;;;;8.48;7.57;;;38.20;1.00;;;;;;5048291;28;20459;-64
2022/07/21 09:00:07;;;;;;;8.63;7.68;;;38.10;1.00;;;;;;5069181;28;20590;-64
2022/07/21 09:02:35;;;;;;;8.60;7.78;;;38.00;1.00;;;;;;5048403;28;20489;-63
2022/07/21 09:05:01;;;;;;;8.73;7.90;;;38.10;1.00;;;;;;5069217;28;20029;-64
2022/07/21 09:07:27;;;;;;;9.55;7.50;;;37.90;1.00;;;;;;5048261;28;20210;-64
2022/07/21 09:09:58;;;;;;;9.10;7.22;;;37.80;1.00;;;;;;5068861;28;20029;-64
2022/07/21 09:12:25;;;;;;;10.07;7.65;;;37.70;1.00;;;;;;5047922;28;20117;-64
2022/07/21 09:14:51;;;;;;;12.70;7.80;;;37.20;1.00;;;;;;5062641;28;20033;-64
2022/07/21 09:17:18;;;;;;;9.27;7.15;;;37.20;1.00;;;;;;5048083;28;20044;-63
2022/07/21 09:19:46;;;;;;;9.40;7.25;;;37.20;1.00;;;;;;5068896;28;20330;-64
2022/07/21 09:22:18;;;;;;;9.57;7.65;;;37.20;1.00;;;;;;5047803;28;20025;-64
2022/07/21 09:24:49;;;;;;;9.93;6.60;;;37.30;1.00;;;;;;5029521;28;20116;-64
2022/07/21 09:27:17;;;;;;;8.10;7.30;;;37.30;1.00;;;;;;5052030;28;20488;-63
2022/07/21 09:29:45;;;;;;;8.68;7.68;;;37.10;1.00;;;;;;5068812;28;20040;-64
2022/07/21 09:32:40;;;;;;;8.65;7.43;;;36.80;1.00;;;;;;5046244;28;20032;-64
2022/07/21 09:35:14;;;;;;;7.67;6.80;;;36.60;1.00;;;;;;5028578;28;20080;-64
2022/07/21 09:37:41;;;;;;;10.15;7.50;;;36.50;1.00;;;;;;5045854;28;20555;-64
2022/07/21 09:40:13;;;;;;;10.80;7.47;;;36.20;1.00;;;;;;5068465;28;20085;-64
2022/07/21 09:42:41;;;;;;;11.93;7.85;;;36.00;1.00;;;;;;5045754;28;20052;-64
2022/07/21 09:45:13;;;;;;;10.82;7.35;;;35.80;1.00;;;;;;5068499;28;20025;-64
2022/07/21 09:47:42;;;;;;;11.35;7.28;;;35.80;1.00;;;;;;5049075;28;20564;-64
2022/07/21 09:50:09;;;;;;;7.50;6.72;;;35.70;1.00;;;;;;5068865;28;20494;-64
2022/07/21 09:52:38;;;;;;;9.35;7.25;;;35.90;1.00;;;;;;5047331;28;20485;-64
2022/07/21 09:55:07;;;;;;;10.07;7.45;;;35.90;1.00;;;;;;5068425;28;20031;-64
2022/07/21 09:57:33;;;;;;;9.82;7.07;;;35.80;1.00;;;;;;5046896;28;20555;-63
2022/07/21 09:59:59;;;;;;;10.35;6.20;;;35.80;1.00;;;;;;5067137;28;20040;-64
2022/07/21 10:02:27;;;;;;;6.30;5.70;;;36.20;1.00;;;;;;5047448;28;20025;-63
2022/07/21 10:05:04;;;;;;;7.60;6.07;;;36.40;1.00;;;;;;5067964;28;20047;-64
2022/07/21 10:07:31;;;;;;;6.75;5.75;;;36.60;1.00;;;;;;5043283;28;20489;-64
2022/07/21 10:09:58;;;;;;;9.82;6.20;;;36.70;1.00;;;;;;5068202;28;20115;-64
2022/07/21 10:12:25;;;;;;;6.88;6.03;;;36.70;1.00;;;;;;5046965;28;20100;-64
2022/07/21 10:14:51;;;;;;;8.32;5.93;;;36.60;1.00;;;;;;5061423;28;20086;-64
2022/07/21 10:17:19;;;;;;;7.93;6.43;;;36.50;1.00;;;;;;5045596;28;20041;-64
2022/07/21 10:20:09;;;;;;;8.13;5.50;;;36.40;1.00;;;;;;5067938;28;20039;-64
2022/07/21 10:22:59;;;;;;;7.38;6.28;;;36.30;1.00;;;;;;5046794;28;20032;-64
2022/07/21 10:25:25;;;;;;;7.30;6.35;;;36.00;1.00;;;;;;5028310;28;20033;-64
2022/07/21 10:28:09;;;;;;;6.63;6.03;;;35.80;1.00;;;;;;5046621;28;20078;-64
2022/07/21 10:30:40;;;;;;;8.35;6.15;;;35.70;1.00;;;;;;5067312;28;20516;-64
2022/07/21 10:33:06;;;;;;;7.65;5.53;;;35.50;1.00;;;;;;5068212;28;20039;-64
2022/07/21 10:35:32;;;;;;;7.55;5.50;;;35.30;1.00;;;;;;5048431;28;20068;-64
2022/07/21 10:37:58;;;;;;;8.02;4.82;;;35.20;1.00;;;;;;5065712;28;20033;-64
2022/07/21 10:40:24;;;;;;;7.75;4.68;;;35.20;1.00;;;;;;5048283;28;20462;-64
2022/07/21 10:42:58;;;;;;;8.30;4.35;;;35.10;1.00;;;;;;5047340;28;20096;-64
2022/07/21 10:45:37;;;;;;;6.22;4.47;;;35.10;1.00;;;;;;5067192;28;20040;-64
2022/07/21 10:48:05;;;;;;;7.43;5.07;;;34.90;1.00;;;;;;5053247;28;20048;-63
2022/07/21 10:50:36;;;;;;;4.20;3.80;;;34.60;1.00;;;;;;5068025;28;20441;-63
2022/07/21 10:53:04;;;;;;;5.18;4.10;;;34.40;1.00;;;;;;5045804;28;20056;-63
2022/07/21 10:55:34;;;;;;;6.00;4.25;;;34.40;1.00;;;;;;5067594;28;20098;-63
2022/07/21 10:58:25;;;;;;;5.72;4.32;;;34.40;1.00;;;;;;5046077;28;20112;-63
2022/07/21 11:00:53;;;;;;;6.20;4.45;;;34.30;1.00;;;;;;5028718;28;20503;-63
2022/07/21 11:03:37;;;;;;;4.40;4.00;;;34.30;1.00;;;;;;5067863;28;20028;-63
2022/07/21 11:06:09;;;;;;;5.22;4.05;;;34.20;1.00;;;;;;5031962;28;20025;-63
2022/07/21 11:08:52;;;;;;;4.53;4.13;;;34.10;1.00;;;;;;5067884;28;20028;-63
2022/07/21 11:11:26;;;;;;;8.30;4.30;;;34.00;1.00;;;;;;5052331;28;20108;-63
2022/07/21 11:14:17;;;;;;;4.97;3.50;;;34.00;1.00;;;;;;5056865;28;20033;-63
2022/07/21 11:16:49;;;;;;;5.80;3.83;;;34.00;1.00;;;;;;5042482;28;20515;-63
2022/07/21 11:19:34;;;;;;;4.30;3.05;;;33.90;1.00;;;;;;5031817;28;20429;-62
2022/07/21 11:22:06;;;;;;;4.35;3.33;;;33.80;1.00;;;;;;5069622;28;20288;-64
2022/07/21 11:24:32;;;;;;;6.57;4.10;;;33.70;1.00;;;;;;5031727;28;20029;-63
2022/07/21 11:27:03;;;;;;;5.15;3.75;;;33.70;1.00;;;;;;5068617;28;20119;-63
2022/07/21 11:29:30;;;;;;;6.60;3.90;;;33.80;1.00;;;;;;5051766;28;20106;-63
2022/07/21 11:31:58;;;;;;;3.80;3.35;;;33.80;1.00;;;;;;5069132;28;20593;-63
2022/07/21 11:34:24;;;;;;;5.13;3.63;;;33.80;1.00;;;;;;5051674;28;20370;-63
2022/07/21 11:37:01;;;;;;;4.28;3.47;;;33.70;1.00;;;;;;5068905;28;20029;-63
2022/07/21 11:39:26;;;;;;;4.13;3.47;;;33.90;1.00;;;;;;5051582;28;20025;-63
2022/07/21 11:41:53;;;;;;;3.10;2.80;;;33.90;1.00;;;;;;5068794;28;20033;-63
2022/07/21 11:44:24;;;;;;;5.47;3.78;;;34.10;1.00;;;;;;5051633;28;20064;-63
2022/07/21 11:46:56;;;;;;;3.85;3.45;;;34.10;1.00;;;;;;5068989;28;20137;-63
2022/07/21 11:49:22;;;;;;;3.97;3.22;;;34.20;1.00;;;;;;5051245;28;20048;-63
2022/07/21 11:51:57;;;;;;;4.05;3.30;;;34.20;1.00;;;;;;5068520;28;20028;-63
2022/07/21 11:54:36;;;;;;;4.30;3.22;;;34.20;1.00;;;;;;5031521;28;20032;-63
2022/07/21 11:57:05;;;;;;;3.67;3.15;;;34.40;1.00;;;;;;5068829;28;20041;-63
2022/07/21 11:59:32;;;;;;;5.95;3.38;;;34.40;1.00;;;;;;5051154;28;20029;-63
2022/07/21 12:02:01;;;;;;;4.85;4.07;;;34.50;1.00;;;;;;5068676;28;20021;-63
2022/07/21 12:04:31;;;;;;;4.85;3.33;;;34.50;1.00;;;;;;5050963;28;20021;-63
2022/07/21 12:06:57;;;;;;;5.97;3.55;;;34.50;1.00;;;;;;5068890;28;20024;-63
2022/07/21 12:09:23;;;;;;;4.68;4.20;;;34.50;1.00;;;;;;5051434;28;20025;-63
2022/07/21 12:11:49;;;;;;;5.55;4.43;;;34.30;1.00;;;;;;5068358;28;20036;-63
2022/07/21 12:14:16;;;;;;;7.95;4.05;;;34.20;1.00;;;;;;5054284;28;20419;-62
2022/07/21 12:16:49;;;;;;;5.22;3.35;;;34.10;1.00;;;;;;5068166;28;20268;-63
2022/07/21 12:19:17;;;;;;;6.22;3.50;;;34.00;1.00;;;;;;5070788;28;20464;-62
2022/07/21 12:21:52;;;;;;;4.13;3.17;;;33.90;1.00;;;;;;5055254;28;20032;-63
2022/07/21 12:24:19;;;;;;;5.53;3.67;;;33.90;1.00;;;;;;5069916;28;20029;-62
2022/07/21 12:26:46;;;;;;;3.33;3.03;;;33.80;1.00;;;;;;5055265;28;20032;-63
2022/07/21 12:29:28;;;;;;;4.53;3.30;;;33.90;1.00;;;;;;5070596;28;20500;-63
2022/07/21 12:31:54;;;;;;;3.80;3.42;;;34.00;1.00;;;;;;5043715;28;20067;-63
2022/07/21 12:34:19;;;;;;;6.20;3.03;;;34.00;1.00;;;;;;5070343;28;20492;-63
2022/07/21 12:36:46;;;;;;;3.80;3.22;;;33.90;1.00;;;;;;5055010;28;20036;-63
2022/07/21 12:42:29;;;;;;;4.95;3.40;;;33.90;1.00;;;;;;5046711;28;20051;-63
2022/07/21 12:44:54;;;;;;;4.65;3.42;;;33.90;1.00;;;;;;5030172;28;20034;-63
2022/07/21 12:47:21;;;;;;;5.10;3.83;;;33.80;1.00;;;;;;5065092;28;20038;-63
2022/07/21 12:49:54;;;;;;;4.25;3.70;;;33.70;1.00;;;;;;5050528;28;20028;-63
2022/07/21 12:52:20;;;;;;;6.93;4.20;;;33.60;1.00;;;;;;5067553;28;20028;-63
2022/07/21 12:54:45;;;;;;;4.15;3.67;;;33.60;1.00;;;;;;5050484;28;20040;-63
2022/07/21 12:57:11;;;;;;;6.30;3.70;;;33.60;1.00;;;;;;5067327;28;20036;-63
2022/07/21 12:59:36;;;;;;;3.97;3.58;;;33.60;1.00;;;;;;5050619;28;20033;-63